createdAt,value
2022-09-23T00:01:26.697Z,20.08
2022-09-23T00:04:04.136Z,18.75
2022-09-23T00:06:39.547Z,22.50
2022-09-23T00:09:15.633Z,16.75
2022-09-23T00:11:52.499Z,23.98
2022-09-23T00:14:28.065Z,22.40
2022-09-23T00:17:05.775Z,21.95
2022-09-23T00:19:44.590Z,17.42
2022-09-23T00:22:19.612Z,14.98
2022-09-23T00:24:54.847Z,19.25
2022-09-23T00:27:32.803Z,20.45
2022-09-23T00:30:11.030Z,23.55
2022-09-23T00:32:45.990Z,19.83
2022-09-23T00:35:21.703Z,20.80
2022-09-23T00:37:57.033Z,17.92
2022-09-23T00:40:32.628Z,16.67
2022-09-23T00:43:10.606Z,21.38
2022-09-23T00:45:47.147Z,22.50
2022-09-23T00:48:25.840Z,24.42
2022-09-23T00:51:01.574Z,20.77
2022-09-23T00:53:37.700Z,21.30
2022-09-23T00:56:15.621Z,26.50
2022-09-23T00:58:55.202Z,29.20
2022-09-23T01:01:32.221Z,19.90
2022-09-23T01:04:11.575Z,19.67
2022-09-23T01:06:47.487Z,26.27
2022-09-23T01:09:22.974Z,28.92
2022-09-23T01:12:09.063Z,19.20
2022-09-23T01:14:52.807Z,25.02
2022-09-23T01:17:34.889Z,27.88
2022-09-23T01:20:43.453Z,24.55
2022-09-23T01:23:47.005Z,24.60
2022-09-23T01:26:44.644Z,24.02
2022-09-23T01:29:45.273Z,25.23
2022-09-23T01:32:27.971Z,31.88
2022-09-23T01:35:07.045Z,21.25
2022-09-23T01:37:51.613Z,22.50
2022-09-23T01:40:35.048Z,23.67
2022-09-23T01:43:13.784Z,23.95
2022-09-23T01:45:56.185Z,23.02
2022-09-23T01:48:38.438Z,21.63
2022-09-23T01:51:22.348Z,18.58
2022-09-23T01:54:03.560Z,11.13
2022-09-23T01:56:44.014Z,15.93
2022-09-23T01:59:23.226Z,17.00
2022-09-23T02:02:03.320Z,15.50
2022-09-23T02:04:47.360Z,14.50
2022-09-23T02:07:32.869Z,16.83
2022-09-23T02:10:17.854Z,12.75
2022-09-23T02:12:58.965Z,18.23
2022-09-23T02:15:38.241Z,16.90
2022-09-23T02:18:17.522Z,22.83
2022-09-23T02:20:55.647Z,18.50
2022-09-23T02:23:36.815Z,21.25
2022-09-23T02:26:21.179Z,20.83
2022-09-23T02:29:05.338Z,24.98
2022-09-23T02:31:45.535Z,19.88
2022-09-23T02:34:36.024Z,19.90
2022-09-23T02:37:23.501Z,26.95
2022-09-23T02:40:07.060Z,19.17
2022-09-23T02:42:50.511Z,19.80
2022-09-23T02:45:25.758Z,16.90
2022-09-23T02:48:08.833Z,23.02
2022-09-23T02:50:48.514Z,19.65
2022-09-23T02:53:27.499Z,16.15
2022-09-23T02:56:05.893Z,18.52
2022-09-23T02:58:41.395Z,17.65
2022-09-23T03:01:33.125Z,19.17
2022-09-23T03:04:17.832Z,17.42
2022-09-23T03:07:05.176Z,16.98
2022-09-23T03:09:48.524Z,16.50
2022-09-23T03:12:36.068Z,18.95
2022-09-23T03:15:22.922Z,14.88
2022-09-23T03:18:07.801Z,19.00
2022-09-23T03:20:51.213Z,15.95
2022-09-23T03:23:33.330Z,13.57
2022-09-23T03:26:14.914Z,15.77
2022-09-23T03:28:51.974Z,16.80
2022-09-23T03:31:27.750Z,14.68
2022-09-23T03:34:06.852Z,13.98
2022-09-23T03:36:55.594Z,18.75
2022-09-23T03:39:39.113Z,16.27
2022-09-23T03:42:19.783Z,15.80
2022-09-23T03:44:59.983Z,14.18
2022-09-23T03:47:36.033Z,14.88
2022-09-23T03:50:11.587Z,13.07
2022-09-23T03:52:45.849Z,15.65
2022-09-23T03:55:22.906Z,17.85
2022-09-23T03:58:02.996Z,17.88
2022-09-23T04:00:39.048Z,16.27
2022-09-23T04:03:16.155Z,16.95
2022-09-23T04:05:53.523Z,20.83
2022-09-23T04:08:29.049Z,18.25
2022-09-23T04:11:06.935Z,17.98
2022-09-23T04:13:45.607Z,17.45
2022-09-23T04:16:21.186Z,16.25
2022-09-23T04:18:57.832Z,20.02
2022-09-23T04:21:33.755Z,18.42
2022-09-23T04:24:09.164Z,15.48
2022-09-23T04:26:45.786Z,17.23
2022-09-23T04:29:24.873Z,15.38
2022-09-23T04:32:01.153Z,18.88
2022-09-23T04:34:36.295Z,18.60
2022-09-23T04:37:11.775Z,16.45
2022-09-23T04:39:47.149Z,13.50
2022-09-23T04:42:25.179Z,19.00
2022-09-23T04:45:03.264Z,17.35
2022-09-23T04:47:39.594Z,16.33
2022-09-23T04:50:16.422Z,14.13
2022-09-23T04:52:52.603Z,19.50
2022-09-23T04:55:30.914Z,20.23
2022-09-23T04:58:06.018Z,15.63
2022-09-23T05:00:43.484Z,20.55
2022-09-23T05:03:18.796Z,18.80
2022-09-23T05:05:54.104Z,16.50
2022-09-23T05:08:30.157Z,18.20
2022-09-23T05:11:06.450Z,19.83
2022-09-23T05:13:41.647Z,19.05
2022-09-23T05:16:20.005Z,23.83
2022-09-23T05:18:54.758Z,21.05
2022-09-23T05:21:33.068Z,20.77
2022-09-23T05:24:08.434Z,21.05
2022-09-23T05:26:45.161Z,15.85
2022-09-23T05:29:21.288Z,18.48
2022-09-23T05:31:57.610Z,19.67
2022-09-23T05:34:50.458Z,16.33
2022-09-23T05:37:27.031Z,15.27
2022-09-23T05:40:06.785Z,17.80
2022-09-23T05:42:42.866Z,17.17
2022-09-23T05:45:19.041Z,20.42
2022-09-23T05:47:56.695Z,19.20
2022-09-23T05:50:30.831Z,20.65
2022-09-23T05:53:05.187Z,20.05
2022-09-23T05:55:39.980Z,19.35
2022-09-23T05:58:15.635Z,20.83
2022-09-23T06:00:53.761Z,15.48
2022-09-23T06:03:30.334Z,20.05
2022-09-23T06:06:06.695Z,18.58
2022-09-23T06:08:41.100Z,17.65
2022-09-23T06:11:18.746Z,17.05
2022-09-23T06:13:54.303Z,22.55
2022-09-23T06:16:30.652Z,21.08
2022-09-23T06:19:07.332Z,19.60
2022-09-23T06:21:42.095Z,19.55
2022-09-23T06:24:20.848Z,22.17
2022-09-23T06:26:57.693Z,22.40
2022-09-23T06:29:35.721Z,26.20
2022-09-23T06:32:11.294Z,20.35
2022-09-23T06:34:52.077Z,20.77
2022-09-23T06:37:28.476Z,24.98
2022-09-23T06:40:04.951Z,19.73
2022-09-23T06:42:40.064Z,19.60
2022-09-23T06:45:16.667Z,20.90
2022-09-23T06:47:55.492Z,21.13
2022-09-23T06:50:33.367Z,20.60
2022-09-23T06:53:08.814Z,19.30
2022-09-23T06:55:43.844Z,20.95
2022-09-23T06:58:19.367Z,18.58
2022-09-23T07:00:54.604Z,24.45
2022-09-23T07:03:29.953Z,22.00
2022-09-23T07:06:07.450Z,23.38
2022-09-23T07:08:51.606Z,20.17
2022-09-23T07:11:27.927Z,22.50
2022-09-23T07:14:03.548Z,21.90
2022-09-23T07:16:39.704Z,29.13
2022-09-23T07:19:15.984Z,21.63
2022-09-23T07:21:52.902Z,23.58
2022-09-23T07:24:28.427Z,21.33
2022-09-23T07:27:07.065Z,21.50
2022-09-23T07:29:48.484Z,22.92
2022-09-23T07:32:25.754Z,22.42
2022-09-23T07:35:19.996Z,20.80
2022-09-23T07:37:58.364Z,21.17
2022-09-23T07:40:34.799Z,26.95
2022-09-23T07:43:10.668Z,21.08
2022-09-23T07:45:45.954Z,17.80
2022-09-23T07:48:20.294Z,20.55
2022-09-23T07:50:54.999Z,23.15
2022-09-23T07:53:33.517Z,23.48
2022-09-23T07:56:10.616Z,19.83
2022-09-23T07:58:44.869Z,21.38
2022-09-23T08:01:19.025Z,24.30
2022-09-23T08:03:53.450Z,24.02
2022-09-23T08:06:28.926Z,21.33
2022-09-23T08:09:09.135Z,19.35
2022-09-23T08:11:46.859Z,27.40
2022-09-23T08:14:22.335Z,22.10
2022-09-23T08:16:56.830Z,19.77
2022-09-23T08:19:31.250Z,21.20
2022-09-23T08:22:08.316Z,17.88
2022-09-23T08:24:44.382Z,23.05
2022-09-23T08:27:21.098Z,25.38
2022-09-23T08:29:58.598Z,24.95
2022-09-23T08:32:33.783Z,18.73
2022-09-23T08:35:10.832Z,25.58
2022-09-23T08:37:46.331Z,20.50
2022-09-23T08:40:25.677Z,19.65
2022-09-23T08:43:01.777Z,16.65
2022-09-23T08:45:37.589Z,20.17
2022-09-23T08:48:17.479Z,22.52
2022-09-23T08:50:53.262Z,20.00
2022-09-23T08:53:30.207Z,21.23
2022-09-23T08:56:14.789Z,12.10
2022-09-23T08:59:00.203Z,19.95
2022-09-23T09:01:43.998Z,21.35
2022-09-23T09:04:29.717Z,17.13
2022-09-23T09:07:31.756Z,19.33
2022-09-23T09:10:07.771Z,18.02
2022-09-23T09:12:49.345Z,20.55
2022-09-23T09:15:28.278Z,17.38
2022-09-23T09:18:10.142Z,21.52
2022-09-23T09:20:50.050Z,17.27
2022-09-23T09:23:28.267Z,17.33
2022-09-23T09:26:05.798Z,15.50
2022-09-23T09:28:46.102Z,15.45
2022-09-23T09:31:28.761Z,18.52
2022-09-23T09:34:09.232Z,16.17
2022-09-23T09:36:53.071Z,25.92
2022-09-23T09:39:28.426Z,21.38
2022-09-23T09:42:07.130Z,20.85
2022-09-23T09:44:48.868Z,24.92
2022-09-23T09:47:41.507Z,19.88
2022-09-23T09:50:20.829Z,16.35
2022-09-23T09:52:58.307Z,22.52
2022-09-23T09:55:34.199Z,15.70
2022-09-23T09:58:10.012Z,24.77
2022-09-23T10:00:48.162Z,23.63
2022-09-23T10:03:35.171Z,20.83
2022-09-23T10:06:22.726Z,26.23
2022-09-23T10:09:18.711Z,21.42
2022-09-23T10:12:11.050Z,27.35
2022-09-23T10:14:45.260Z,33.53
2022-09-23T10:17:30.728Z,27.40
2022-09-23T10:20:05.923Z,24.95
2022-09-23T10:22:44.177Z,28.65
2022-09-23T10:25:24.037Z,30.92
2022-09-23T10:27:58.212Z,29.20
2022-09-23T10:30:33.105Z,27.23
2022-09-23T10:33:09.196Z,31.77
2022-09-23T10:35:59.485Z,27.42
2022-09-23T10:38:34.404Z,26.85
2022-09-23T10:41:25.966Z,31.40
2022-09-23T10:44:23.386Z,28.00
2022-09-23T10:47:12.964Z,25.90
2022-09-23T10:50:18.645Z,33.92
2022-09-23T10:53:05.386Z,27.63
2022-09-23T10:55:52.782Z,26.90
2022-09-23T10:58:54.851Z,30.00
2022-09-23T11:01:42.615Z,25.75
2022-09-23T11:04:33.867Z,27.92
2022-09-23T11:07:24.371Z,29.17
2022-09-23T11:10:45.865Z,30.08
2022-09-23T11:13:34.958Z,29.13
2022-09-23T11:16:18.800Z,35.78
2022-09-23T11:19:12.530Z,30.05
2022-09-23T11:21:51.751Z,31.15
2022-09-23T11:24:46.871Z,31.33
2022-09-23T11:27:33.504Z,35.90
2022-09-23T11:30:14.884Z,32.15
2022-09-23T11:33:27.083Z,27.50
2022-09-23T11:36:04.036Z,34.50
2022-09-23T11:38:42.797Z,27.48
2022-09-23T11:41:21.898Z,30.77
2022-09-23T11:43:57.605Z,30.00
2022-09-23T11:46:36.293Z,32.08
2022-09-23T11:49:15.339Z,30.80
2022-09-23T11:52:07.322Z,31.33
2022-09-23T11:54:50.366Z,42.45
2022-09-23T11:57:44.577Z,30.67
2022-09-23T12:00:25.993Z,29.40
2022-09-23T12:03:09.370Z,32.72
2022-09-23T12:05:47.356Z,33.72
2022-09-23T12:08:30.272Z,35.05
2022-09-23T12:11:10.379Z,27.08
2022-09-23T12:13:53.402Z,29.33
2022-09-23T12:16:55.505Z,29.02
2022-09-23T12:19:38.911Z,30.08
2022-09-23T12:22:28.720Z,28.85
2022-09-23T12:25:21.265Z,31.10
2022-09-23T12:27:58.988Z,27.95
2022-09-23T12:30:38.976Z,32.65
2022-09-23T12:33:29.072Z,30.77
2022-09-23T12:36:09.280Z,40.28
2022-09-23T12:38:52.999Z,27.55
2022-09-23T12:41:39.206Z,36.65
2022-09-23T12:44:38.447Z,29.63
2022-09-23T12:47:45.809Z,28.73
2022-09-23T12:50:57.516Z,33.70
2022-09-23T12:53:59.971Z,29.95
2022-09-23T12:57:09.134Z,33.60
2022-09-23T13:00:02.382Z,34.58
2022-09-23T13:02:41.582Z,32.03
2022-09-23T13:05:40.410Z,26.40
2022-09-23T13:08:29.943Z,27.70
2022-09-23T13:11:10.554Z,29.83
2022-09-23T13:13:48.834Z,25.83
2022-09-23T13:16:29.293Z,25.75
2022-09-23T13:19:06.155Z,25.70
2022-09-23T13:22:11.560Z,31.80
2022-09-23T13:24:52.721Z,28.00
2022-09-23T13:27:42.042Z,28.83
2022-09-23T13:30:26.633Z,30.88
2022-09-23T13:33:13.254Z,29.17
2022-09-23T13:35:54.654Z,23.13
2022-09-23T13:38:34.098Z,26.65
2022-09-23T13:41:16.256Z,25.90
2022-09-23T13:43:53.707Z,29.45
2022-09-23T13:46:30.845Z,24.30
2022-09-23T13:49:10.217Z,24.48
2022-09-23T13:51:49.110Z,24.15
2022-09-23T13:54:40.508Z,20.85
2022-09-23T13:57:31.982Z,25.58
2022-09-23T14:00:20.579Z,27.00
2022-09-23T14:02:57.292Z,26.45
2022-09-23T14:05:40.125Z,25.50
2022-09-23T14:08:19.136Z,23.73
2022-09-23T14:10:59.989Z,23.60
2022-09-23T14:13:36.652Z,26.05
2022-09-23T14:16:17.776Z,23.30
2022-09-23T14:19:01.292Z,25.70
2022-09-23T14:21:40.679Z,25.77
2022-09-23T14:24:24.264Z,21.55
2022-09-23T14:27:15.174Z,22.73
2022-09-23T14:29:53.138Z,24.77
2022-09-23T14:32:32.208Z,26.30
2022-09-23T14:35:24.023Z,18.95
2022-09-23T14:38:18.469Z,22.13
2022-09-23T14:41:17.229Z,24.45
2022-09-23T14:43:59.617Z,28.55
2022-09-23T14:46:36.809Z,24.17
2022-09-23T14:49:25.738Z,22.63
2022-09-23T14:52:02.672Z,20.92
2022-09-23T14:54:49.186Z,21.02
2022-09-23T14:57:32.942Z,19.13
2022-09-23T15:00:21.695Z,20.73
2022-09-23T15:03:05.181Z,19.23
2022-09-23T15:05:49.502Z,24.33
2022-09-23T15:08:27.951Z,26.00
2022-09-23T15:11:08.531Z,21.40
2022-09-23T15:13:47.328Z,21.63
2022-09-23T15:16:31.388Z,26.23
2022-09-23T15:19:07.082Z,26.00
2022-09-23T15:21:47.728Z,22.45
2022-09-23T15:24:45.390Z,27.23
2022-09-23T15:27:32.504Z,22.77
2022-09-23T15:30:20.501Z,22.70
2022-09-23T15:32:58.585Z,23.83
2022-09-23T15:35:35.187Z,25.15
2022-09-23T15:38:11.786Z,22.73
2022-09-23T15:40:47.142Z,23.58
2022-09-23T15:43:23.452Z,24.88
2022-09-23T15:46:02.047Z,20.45
2022-09-23T15:48:45.379Z,24.40
2022-09-23T15:51:21.664Z,24.05
2022-09-23T15:53:58.089Z,23.10
2022-09-23T15:56:35.846Z,29.48
2022-09-23T15:59:11.758Z,24.88
2022-09-23T16:01:48.312Z,19.10
2022-09-23T16:04:27.257Z,19.70
2022-09-23T16:07:03.386Z,20.15
2022-09-23T16:09:38.513Z,22.55
2022-09-23T16:12:16.285Z,23.58
2022-09-23T16:14:53.196Z,21.08
2022-09-23T16:17:30.831Z,24.50
2022-09-23T16:20:08.356Z,24.42
2022-09-23T16:22:43.914Z,24.17
2022-09-23T16:25:19.176Z,23.30
2022-09-23T16:27:57.059Z,23.25
2022-09-23T16:30:34.682Z,24.08
2022-09-23T16:33:10.439Z,26.70
2022-09-23T16:35:48.095Z,25.10
2022-09-23T16:38:23.412Z,25.92
2022-09-23T16:41:04.362Z,24.48
2022-09-23T16:43:43.095Z,20.85
2022-09-23T16:46:22.144Z,23.75
2022-09-23T16:48:57.907Z,27.55
2022-09-23T16:51:39.966Z,22.50
2022-09-23T16:54:16.318Z,20.85
2022-09-23T16:56:52.158Z,21.23
2022-09-23T16:59:47.720Z,21.40
2022-09-23T17:02:40.345Z,22.38
2022-09-23T17:05:20.223Z,23.02
2022-09-23T17:07:58.156Z,22.67
2022-09-23T17:10:33.343Z,21.40
2022-09-23T17:13:09.792Z,26.63
2022-09-23T17:15:46.135Z,26.60
2022-09-23T17:18:22.427Z,23.65
2022-09-23T17:21:05.402Z,22.15
2022-09-23T17:23:42.596Z,22.48
2022-09-23T17:26:18.159Z,19.00
2022-09-23T17:28:53.628Z,21.80
2022-09-23T17:31:32.350Z,24.52
2022-09-23T17:34:10.614Z,25.38
2022-09-23T17:36:45.921Z,20.73
2022-09-23T17:39:23.132Z,25.90
2022-09-23T17:41:59.032Z,26.48
2022-09-23T17:44:35.030Z,23.17
2022-09-23T17:47:30.974Z,27.40
2022-09-23T17:50:08.870Z,24.08
2022-09-23T17:52:44.141Z,20.92
2022-09-23T17:55:22.115Z,23.77
2022-09-23T17:57:58.284Z,22.25
2022-09-23T18:00:34.315Z,20.00
2022-09-23T18:03:09.959Z,22.58
2022-09-23T18:05:45.128Z,22.90
2022-09-23T18:08:21.156Z,21.80
2022-09-23T18:10:59.300Z,24.58
2022-09-23T18:13:34.840Z,23.58
2022-09-23T18:16:10.466Z,18.38
2022-09-23T18:18:46.351Z,20.95
2022-09-23T18:21:21.781Z,21.45
2022-09-23T18:24:21.317Z,18.48
2022-09-23T18:27:00.268Z,21.23
2022-09-23T18:29:36.936Z,20.10
2022-09-23T18:32:14.178Z,22.02
2022-09-23T18:34:49.963Z,21.05
2022-09-23T18:37:25.144Z,18.75
2022-09-23T18:40:00.332Z,21.38
2022-09-23T18:42:41.996Z,22.00
2022-09-23T18:45:17.925Z,17.70
2022-09-23T18:48:08.750Z,20.73
2022-09-23T18:51:02.568Z,17.27
2022-09-23T18:53:38.938Z,19.10
2022-09-23T18:56:17.112Z,17.50
2022-09-23T18:58:55.516Z,17.98
2022-09-23T19:01:32.658Z,18.30
2022-09-23T19:04:08.953Z,17.65
2022-09-23T19:06:44.522Z,17.45
2022-09-23T19:09:23.968Z,17.75
2022-09-23T19:11:59.400Z,15.98
2022-09-23T19:14:36.577Z,19.33
2022-09-23T19:17:12.140Z,20.20
2022-09-23T19:19:47.789Z,17.77
2022-09-23T19:22:25.967Z,19.08
2022-09-23T19:25:01.219Z,16.08
2022-09-23T19:27:38.501Z,16.35
2022-09-23T19:30:18.104Z,14.35
2022-09-23T19:32:53.851Z,17.02
2022-09-23T19:35:30.030Z,18.17
2022-09-23T19:38:05.290Z,16.25
2022-09-23T19:40:41.352Z,15.73
2022-09-23T19:43:18.174Z,19.90
2022-09-23T19:46:01.423Z,19.30
2022-09-23T19:48:36.703Z,17.60
2022-09-23T19:51:12.284Z,17.95
2022-09-23T19:53:49.650Z,15.48
2022-09-23T19:56:25.416Z,17.05
2022-09-23T19:59:01.141Z,22.80
2022-09-23T20:01:39.486Z,17.40
2022-09-23T20:04:15.734Z,18.42
2022-09-23T20:06:51.330Z,18.27
2022-09-23T20:09:29.823Z,18.23
2022-09-23T20:12:05.211Z,17.73
2022-09-23T20:14:40.775Z,14.82
2022-09-23T20:17:19.144Z,17.17
2022-09-23T20:19:58.099Z,19.08
2022-09-23T20:22:35.787Z,17.52
2022-09-23T20:25:17.738Z,17.02
2022-09-23T20:27:54.305Z,17.13
2022-09-23T20:30:31.081Z,14.77
2022-09-23T20:33:08.307Z,18.75
2022-09-23T20:35:44.946Z,20.33
2022-09-23T20:38:20.179Z,17.27
2022-09-23T20:41:00.864Z,15.68
2022-09-23T20:43:36.703Z,20.05
2022-09-23T20:46:12.050Z,17.63
2022-09-23T20:48:52.065Z,16.58
2022-09-23T20:51:49.390Z,12.98
2022-09-23T20:54:26.509Z,17.77
2022-09-23T20:57:04.036Z,16.90
2022-09-23T20:59:39.372Z,16.10
2022-09-23T21:02:17.167Z,15.63
2022-09-23T21:04:55.133Z,18.23
2022-09-23T21:07:30.734Z,15.50
2022-09-23T21:10:08.623Z,17.45
2022-09-23T21:12:44.205Z,16.80
2022-09-23T21:15:21.032Z,18.00
2022-09-23T21:17:56.497Z,16.38
2022-09-23T21:20:33.532Z,15.75
2022-09-23T21:23:08.813Z,17.95
2022-09-23T21:25:45.105Z,16.33
2022-09-23T21:28:20.998Z,13.88
2022-09-23T21:30:56.305Z,17.40
2022-09-23T21:33:32.156Z,14.75
2022-09-23T21:36:10.908Z,15.57
2022-09-23T21:38:46.755Z,14.02
2022-09-23T21:41:23.170Z,13.77
2022-09-23T21:43:58.276Z,13.07
2022-09-23T21:46:35.634Z,16.38
2022-09-23T21:49:16.172Z,15.10
2022-09-23T21:52:12.087Z,20.33
2022-09-23T21:54:49.392Z,18.77
2022-09-23T21:57:27.550Z,18.63
2022-09-23T22:00:07.159Z,15.93
2022-09-23T22:02:42.468Z,16.98
2022-09-23T22:05:17.802Z,16.77
2022-09-23T22:07:55.965Z,17.60
2022-09-23T22:10:33.705Z,17.30
2022-09-23T22:13:12.967Z,17.23
2022-09-23T22:15:48.510Z,16.40
2022-09-23T22:18:24.960Z,16.88
2022-09-23T22:21:02.587Z,16.65
2022-09-23T22:23:41.348Z,17.17
2022-09-23T22:26:16.683Z,13.77
2022-09-23T22:29:07.404Z,16.67
2022-09-23T22:31:59.185Z,16.38
2022-09-23T22:34:51.661Z,16.75
2022-09-23T22:37:31.939Z,16.15
2022-09-23T22:40:11.751Z,14.57
2022-09-23T22:42:48.597Z,15.15
2022-09-23T22:45:24.265Z,15.40
2022-09-23T22:47:59.346Z,12.90
2022-09-23T22:50:34.968Z,13.68
2022-09-23T22:53:10.760Z,14.68
2022-09-23T22:55:49.198Z,12.68
2022-09-23T22:58:32.207Z,14.98
2022-09-23T23:01:08.193Z,14.70
2022-09-23T23:03:43.509Z,12.70
2022-09-23T23:06:21.247Z,15.80
2022-09-23T23:09:00.210Z,14.73
2022-09-23T23:11:37.244Z,14.05
2022-09-23T23:14:12.575Z,18.50
2022-09-23T23:16:51.100Z,15.98
2022-09-23T23:19:26.452Z,17.67
2022-09-23T23:22:01.727Z,18.98
2022-09-23T23:24:39.124Z,14.55
2022-09-23T23:27:16.179Z,14.82
2022-09-23T23:29:51.529Z,13.35
2022-09-23T23:32:26.972Z,13.80
2022-09-23T23:35:02.414Z,14.65
2022-09-23T23:37:37.500Z,10.25
2022-09-23T23:40:13.890Z,10.20
2022-09-23T23:42:52.653Z,7.63
2022-09-23T23:45:28.019Z,9.63
2022-09-23T23:48:05.466Z,6.38
2022-09-23T23:50:40.581Z,5.93
2022-09-23T23:53:15.716Z,6.35
2022-09-23T23:56:12.019Z,7.78
2022-09-23T23:58:51.244Z,7.88
